Metar Cercanos

 

LEPA - Palma De Mallorc, Spain
Distance from station: ONO 38km
Actualización: Wed, 27-Oct-2021 3:30am CEST
Few Clouds
Few Clouds
 Viento del varies
Viento: varies 4 km/h
Temperatura: 10°C
Rocío: 9°C
Humedad: 94%
Barómetro: 1022 hPa
Clouds: Few Clouds
Visibility: 10 km
Cloud details: Few Clouds 1067 m
2021/10/27 01:30 LEPA 270130Z VRB02KT 9999 FEW035 10/09 Q1022 NOSIG
LEMH - Mahon/Menorca Is, Spain
Distance from station: ENE 105km
Actualización: Wed, 27-Oct-2021 3:30am CEST
Muy nuboso
Muy nuboso
 Viento del NNO
Viento: NNO 7 km/h
Temperatura: 16°C
Rocío: 11°C
Humedad: 72%
Barómetro: 1021 hPa
Clouds: Muy nuboso
Visibility: 10 km
Cloud details: Parcialmente nuboso 975 m
Muy nuboso 1128 m
2021/10/27 01:30 LEMH 270130Z AUTO 34004KT 9999 SCT032/// BKN037/// 16/11 Q1021
 
LEIB - Ibiza/Es Codola, Spain
Distance from station: OSO 165km
Actualización: Wed, 27-Oct-2021 3:30am CEST
Few Clouds
Few Clouds
 Viento del N
Viento: N 7 km/h
Temperatura: 15°C
Rocío: 12°C
Humedad: 82%
Barómetro: 1022 hPa
Clouds: Few Clouds
Visibility: 10 km
Cloud details: Few Clouds 914 m
2021/10/27 01:30 LEIB 270130Z 35004KT 9999 FEW030 15/12 Q1022 NOSIG
LEBL - Barcelona Airpor, Spain
Distance from station: NNO 225km
Actualización: Wed, 27-Oct-2021 3:30am CEST
Despejado
Despejado
 Viento del NNO
Viento: NNO 17 km/h
Temperatura: 13°C
Rocío: 9°C
Humedad: 77%
Barómetro: 1022 hPa
Resumen: Despejado
Visibility: greater than 10 km
2021/10/27 01:30 LEBL 270130Z 33009KT CAVOK 13/09 Q1022 NOSIG
 
LEVC - Valencia (civ/Mi, Spain
Distance from station: NO 188km
Actualización: Wed, 27-Oct-2021 3:30am CEST
Despejado
Despejado
 Viento del ONO
Viento: ONO 6 km/h
Temperatura: 14°C
Rocío: 12°C
Humedad: 88%
Barómetro: 1023 hPa
Resumen: Despejado
Visibility: greater than 10 km
2021/10/27 01:30 LEVC 270130Z 29003KT 230V340 CAVOK 14/12 Q1023 NOSIG
LEGE - Gerona/Costa Bra, Spain
Distance from station: N 276km
Actualización: Wed, 27-Oct-2021 3:30am CEST
Parcialmente nuboso
Parcialmente nuboso
 Viento del calm
Viento: Calma
Temperatura: 8°C
Rocío: 8°C
Humedad: 100%
Barómetro: 1022 hPa
Clouds: Parcialmente nuboso
Visibility: 6 km
2021/10/27 01:30 LEGE 270130Z 00000KT 6000 NSC 08/08 Q1022
 
LEAL - Alicante/El Alte, Spain
Distance from station: OSO 344km
Actualización: Wed, 27-Oct-2021 3:30am CEST
Despejado
Despejado
 Viento del N
Viento: N 11 km/h
Temperatura: 17°C
Rocío: 13°C
Humedad: 77%
Barómetro: 1022 hPa
Resumen: Despejado
Visibility: greater than 10 km
2021/10/27 01:30 LEAL 270130Z 01006KT CAVOK 17/13 Q1022 NOSIG
LEAM - Almeria Airport, Spain
Distance from station: SSO 56km
Actualización: Wed, 27-Oct-2021 3:30am CEST
Muy nuboso
Muy nuboso
 Viento del NO
Viento: NO 7 km/h
Temperatura: 19°C
Rocío: 12°C
Humedad: 64%
Barómetro: 1020 hPa
Clouds: Muy nuboso
Visibility: 10 km
Cloud details: Parcialmente nuboso 2012 m
Muy nuboso 2316 m
Muy nuboso 2591 m
2021/10/27 01:30 LEAM 270130Z AUTO 32004KT 300V360 9999 SCT066 BKN076 BKN085 19/12 Q1020
 
LEZG - Zaragoza (mil/Ci, Spain
Distance from station: NO 431km
Actualización: Wed, 27-Oct-2021 3:30am CEST
Despejado
Despejado
 Viento del calm
Viento: Calma
Temperatura: 9°C
Rocío: 6°C
Humedad: 82%
Barómetro: 1023 hPa
Resumen: Despejado
Visibility: greater than 10 km
2021/10/27 01:30 LEZG 270130Z 00000KT CAVOK 09/06 Q1023
LEMD - Madrid/Barajas, Spain
Distance from station: ONO 234km
Actualización: Wed, 27-Oct-2021 3:30am CEST
Despejado
Despejado
 Viento del O
Viento: O 6 km/h
Temperatura: 8°C
Rocío: 3°C
Humedad: 71%
Barómetro: 1024 hPa
Resumen: Despejado
Visibility: greater than 10 km
2021/10/27 01:30 LEMD 270130Z 27003KT CAVOK 08/03 Q1024 NOSIG
 
LEGR - Granada Airport, Spain
Distance from station: OSO 62km
Actualización: Wed, 27-Oct-2021 3:30am CEST
Despejado
Despejado
 Viento del calm
Viento: Calma
Temperatura: 8°C
Rocío: 6°C
Humedad: 87%
Barómetro: 1022 hPa
Resumen: Despejado
Visibility: greater than 10 km
2021/10/27 01:30 LEGR 270130Z AUTO 00000KT CAVOK 08/06 Q1022
LEMG - Malaga (civ/Mil), Spain
Distance from station: OSO 227km
Actualización: Wed, 27-Oct-2021 3:30am CEST
Few Clouds
Few Clouds
 Viento del ONO
Viento: ONO 17 km/h
Temperatura: 15°C
Rocío: 12°C
Humedad: 82%
Barómetro: 1020 hPa
Clouds: Few Clouds
Visibility: 10 km
Cloud details: Few Clouds 914 m
2021/10/27 01:30 LEMG 270130Z 29009KT 9999 FEW030 15/12 Q1020 NOSIG
 
LEZL - Sevilla (civ/Mil, Spain
Distance from station: S 318km
Actualización: Wed, 27-Oct-2021 3:30am CEST
Despejado
Despejado
 Viento del NE
Viento: NE 11 km/h
Temperatura: 14°C
Rocío: 8°C
Humedad: 67%
Barómetro: 1020 hPa
Resumen: Despejado
Visibility: greater than 10 km
2021/10/27 01:30 LEZL 270130Z AUTO 04006KT CAVOK 14/08 Q1020
LEVT - Vitoria, Spain
Distance from station: NO 226km
Actualización: Wed, 27-Oct-2021 3:30am CEST
Patches of fog, Parcialmente nuboso
Patches of fog, Parcialmente nuboso
 Viento del calm
Viento: Calma
Temperatura: 2°C
Rocío: 2°C
Humedad: 100%
Barómetro: 1024 hPa
Resumen: Patches of Fog
Clouds: Parcialmente nuboso
Visibility: 10 km
Cloud details: Parcialmente nuboso 61 m
2021/10/27 01:30 LEVT 270130Z 00000KT 9999 2000SE R04/P2000 R22/0800U BCFG SCT002 02/02 Q1024
 
LEBB - Bilbao/Sondica, Spain
Distance from station: NNO 235km
Actualización: Wed, 27-Oct-2021 3:30am CEST
Despejado
Despejado
 Viento del E
Viento: E 9 km/h
Temperatura: 10°C
Sensación frio: 9°C
Rocío: 10°C
Humedad: 100%
Barómetro: 1023 hPa
Resumen: Despejado
Visibility: greater than 10 km
2021/10/27 01:30 LEBB 270130Z AUTO 08005KT 060V130 CAVOK 10/10 Q1023
LESO - San Sebastian/Fu, Spain
Distance from station: N 231km
Actualización: Wed, 27-Oct-2021 3:30am CEST
Despejado
Despejado
 Viento del SSO
Viento: SSO 6 km/h
Temperatura: 10°C
Rocío: 10°C
Humedad: 100%
Barómetro: 1023 hPa
Clouds: Despejado
Visibility: 10 km
2021/10/27 01:30 LESO 270130Z AUTO 21003KT 9999 2900SW NCD 10/10 Q1023
 
LEVD - Valladolid(Mil/C, Spain
Distance from station: ONO 239km
Actualización: Wed, 27-Oct-2021 3:30am CEST
Despejado
Despejado
 Viento del E
Viento: E 4 km/h
Temperatura: 5°C
Rocío: 1°C
Humedad: 76%
Barómetro: 1024 hPa
Resumen: Despejado
Visibility: greater than 10 km
2021/10/27 01:30 LEVD 270130Z AUTO 10002KT CAVOK 05/01 Q1024
LESA - Salamanca (civ/M, Spain
Distance from station: ONO 349km
Actualización: Wed, 27-Oct-2021 3:30am CEST
Despejado
Despejado
 Viento del calm
Viento: Calma
Temperatura: 3°C
Rocío: 1°C
Humedad: 87%
Barómetro: 1024 hPa
Resumen: Despejado
Visibility: greater than 10 km
2021/10/27 01:30 LESA 270130Z AUTO 00000KT CAVOK 03/01 Q1024
 
LEXJ - Santander/Paraya, Spain
Distance from station: NNO 247km
Actualización: Wed, 27-Oct-2021 3:30am CEST
Despejado
Despejado
 Viento del S
Viento: S 4 km/h
Temperatura: 10°C
Rocío: 10°C
Humedad: 100%
Barómetro: 1023 hPa
Clouds: Despejado
Visibility: 9 km
2021/10/27 01:30 LEXJ 270130Z AUTO 17002KT 9000 NCD 10/10 Q1023
LEAS - Asturias/Aviles, Spain
Distance from station: NO 214km
Actualización: Wed, 27-Oct-2021 3:30am CEST
Despejado
Despejado
 Viento del varies
Viento: varies 4 km/h
Temperatura: 11°C
Rocío: 9°C
Humedad: 88%
Barómetro: 1022 hPa
Resumen: Despejado
Visibility: greater than 10 km
2021/10/27 01:30 LEAS 270130Z AUTO VRB02KT CAVOK 11/09 Q1022
 
LECO - La Coruna/Alvedr, Spain
Distance from station: ONO 222km
Actualización: Wed, 27-Oct-2021 3:30am CEST

 Viento del S
Viento: S 9 km/h
Visibility: 2 km
2021/10/27 01:30 LECO 270130Z AUTO 17005KT 2400 0600 BR BCFG NCD 09/09 Q1022
LEVX - Vigo/Peinador, Spain
Distance from station: O 214km
Actualización: Wed, 27-Oct-2021 3:30am CEST
Despejado
Despejado
 Viento del OSO
Viento: OSO 11 km/h
Temperatura: 12°C
Rocío: 11°C
Humedad: 94%
Barómetro: 1022 hPa
Resumen: Despejado
Visibility: greater than 10 km
2021/10/27 01:30 LEVX 270130Z 24006KT CAVOK 12/11 Q1022 NOSIG